Time;durP1;ratioP1;P1;durP2;ratioP2;P2;SDS_P1;SDS_P2;PMS_P1;PMS_P2;Temp;Humidity;BMP_temperature;BMP_pressure;BME280_temperature;BME280_humidity;BME280_pressure;Samples;Min_cycle;Max_cycle;Signal;HPM_P1;HPM_P2
2022/09/26 00:01:30;;;;;;;14.98;5.20;;;;;;;12.64;100.00;100590.69;5051351;28;20059;-75
2022/09/26 00:04:00;;;;;;;13.75;5.15;;;;;;;12.66;100.00;100593.81;5052489;28;20053;-75
2022/09/26 00:06:27;;;;;;;14.00;5.45;;;;;;;12.74;100.00;100586.22;5048600;28;20060;-75
2022/09/26 00:08:54;;;;;;;12.88;4.88;;;;;;;12.62;100.00;100583.97;5059092;28;20094;-73
2022/09/26 00:11:25;;;;;;;13.23;5.13;;;;;;;12.52;100.00;100568.25;5053165;28;20053;-75
2022/09/26 00:13:53;;;;;;;16.20;4.80;;;;;;;12.37;100.00;100559.28;5053233;28;20048;-75
2022/09/26 00:16:21;;;;;;;11.20;4.25;;;;;;;12.29;100.00;100557.75;5052548;28;20122;-75
2022/09/26 00:18:53;;;;;;;14.27;5.22;;;;;;;12.30;100.00;100556.59;5050046;28;20068;-73
2022/09/26 00:21:20;;;;;;;12.93;4.68;;;;;;;12.38;100.00;100548.94;5051739;28;20833;-75
2022/09/26 00:23:47;;;;;;;11.75;4.88;;;;;;;12.43;100.00;100532.63;5056497;28;20052;-75
2022/09/26 00:26:16;;;;;;;13.30;4.50;;;;;;;12.46;100.00;100528.28;5057895;28;20049;-74
2022/09/26 00:28:42;;;;;;;15.05;4.80;;;;;;;12.57;100.00;100528.91;5052914;28;20456;-75
2022/09/26 00:31:11;;;;;;;14.95;4.93;;;;;;;12.61;100.00;100529.66;5054326;28;20049;-74
2022/09/26 00:33:38;;;;;;;12.88;4.70;;;;;;;12.65;100.00;100522.06;5051038;28;20056;-75
2022/09/26 00:36:06;;;;;;;13.55;4.38;;;;;;;12.70;100.00;100516.84;5047655;28;20036;-75
2022/09/26 00:38:33;;;;;;;12.25;4.38;;;;;;;12.66;100.00;100515.34;5057064;28;20064;-75
2022/09/26 00:41:00;;;;;;;14.88;5.72;;;;;;;12.67;100.00;100514.13;5051485;28;20055;-75
2022/09/26 00:43:37;;;;;;;13.43;4.45;;;;;;;12.57;100.00;100504.75;5052698;28;20127;-76
2022/09/26 00:46:03;;;;;;;11.10;4.85;;;;;;;12.65;100.00;100506.22;5054601;28;20053;-75
2022/09/26 00:48:33;;;;;;;14.73;4.85;;;;;;;12.66;100.00;100513.31;5052327;28;20129;-75
2022/09/26 00:50:59;;;;;;;13.57;4.53;;;;;;;12.53;100.00;100515.06;5049714;28;20047;-75
2022/09/26 00:53:32;;;;;;;14.85;4.90;;;;;;;12.52;100.00;100501.63;5049461;28;20102;-76
2022/09/26 00:56:05;;;;;;;15.77;4.88;;;;;;;12.50;100.00;100495.72;5051033;28;20051;-76
2022/09/26 00:58:37;;;;;;;14.40;4.60;;;;;;;12.57;100.00;100496.41;5055654;28;20040;-75
2022/09/26 01:01:05;;;;;;;16.35;4.50;;;;;;;12.50;100.00;100495.72;5050981;28;20048;-73
2022/09/26 01:03:34;;;;;;;12.07;4.47;;;;;;;12.47;100.00;100493.75;5056001;28;20061;-76
2022/09/26 01:06:01;;;;;;;10.75;4.50;;;;;;;12.47;100.00;100483.47;5054033;28;20043;-76
2022/09/26 01:08:33;;;;;;;11.82;4.15;;;;;;;12.39;100.00;100476.41;5066322;28;20405;-76
2022/09/26 01:11:00;;;;;;;11.95;4.82;;;;;;;12.37;100.00;100473.28;5061066;28;20045;-74
2022/09/26 01:13:30;;;;;;;12.48;4.63;;;;;;;12.36;100.00;100465.38;5064920;28;20516;-76
2022/09/26 01:15:56;;;;;;;11.95;4.55;;;;;;;12.33;100.00;100468.97;5069594;28;20064;-76
2022/09/26 01:18:23;;;;;;;18.55;6.68;;;;;;;12.37;100.00;100464.94;5058548;28;20493;-73
2022/09/26 01:21:15;;;;;;;13.90;4.70;;;;;;;12.35;100.00;100459.03;5063631;28;20044;-72
2022/09/26 01:24:03;;;;;;;13.43;4.93;;;;;;;12.39;100.00;100443.09;5060220;28;20049;-73
2022/09/26 01:27:07;;;;;;;13.18;4.60;;;;;;;12.45;100.00;100440.66;5064669;28;20083;-75
2022/09/26 01:29:58;;;;;;;12.77;4.38;;;;;;;12.48;100.00;100437.06;5065978;28;20048;-74
2022/09/26 01:33:00;;;;;;;13.45;4.63;;;;;;;12.51;100.00;100433.44;5057648;28;20040;-73
2022/09/26 01:35:33;;;;;;;13.88;4.90;;;;;;;12.54;100.00;100427.06;5067730;28;20055;-76
2022/09/26 01:38:11;;;;;;;13.88;4.40;;;;;;;12.49;100.00;100422.00;5062084;28;20048;-73
2022/09/26 01:40:56;;;;;;;13.07;4.40;;;;;;;12.46;100.00;100422.81;5057788;28;20052;-75
2022/09/26 01:43:32;;;;;;;8.07;3.73;;;;;;;12.37;100.00;100414.22;5065926;28;20060;-76
2022/09/26 01:46:23;;;;;;;13.20;4.68;;;;;;;12.40;100.00;100418.94;5062722;28;20051;-73
2022/09/26 01:49:05;;;;;;;10.43;4.57;;;;;;;12.45;100.00;100418.44;5057622;28;20128;-76
2022/09/26 01:51:38;;;;;;;12.25;5.07;;;;;;;12.41;100.00;100412.16;5063532;28;20119;-76
2022/09/26 01:54:12;;;;;;;11.88;4.68;;;;;;;12.44;100.00;100408.56;5061614;28;20056;-76
2022/09/26 01:56:42;;;;;;;11.65;3.53;;;;;;;12.39;100.00;100411.81;5059607;28;20094;-73
2022/09/26 01:59:20;;;;;;;12.32;4.10;;;;;;;12.43;100.00;100412.56;5065063;28;20050;-73
2022/09/26 02:01:49;;;;;;;12.07;4.53;;;;;;;12.41;100.00;100404.66;5051836;28;20045;-74
2022/09/26 02:04:21;;;;;;;14.68;4.93;;;;;;;12.44;100.00;100397.47;5068108;28;20512;-77
2022/09/26 02:07:03;;;;;;;9.90;4.55;;;;;;;12.46;100.00;100389.53;5067617;28;20044;-75
2022/09/26 02:09:39;;;;;;;11.75;4.00;;;;;;;12.43;100.00;100395.91;5056443;28;20056;-75
2022/09/26 02:12:09;;;;;;;11.32;4.43;;;;;;;12.46;100.00;100393.06;5058312;28;20539;-75
2022/09/26 02:14:40;;;;;;;12.80;4.05;;;;;;;12.39;100.00;100389.63;5061702;28;20485;-75
2022/09/26 02:17:11;;;;;;;6.10;2.50;;;;;;;12.38;100.00;100380.50;5064902;28;20508;-75
2022/09/26 02:19:55;;;;;;;14.45;5.22;;;;;;;12.51;100.00;100380.72;5068841;28;20043;-75
2022/09/26 02:22:24;;;;;;;11.30;4.18;;;;;;;12.46;100.00;100361.78;5052044;28;20059;-75
2022/09/26 02:24:52;;;;;;;15.27;3.90;;;;;;;12.48;100.00;100373.22;5067509;28;20044;-75
2022/09/26 02:27:18;;;;;;;10.10;3.47;;;;;;;12.55;100.00;100373.91;5057623;28;20097;-76
2022/09/26 02:29:45;;;;;;;13.02;4.57;;;;;;;12.57;100.00;100368.75;5056685;28;20040;-75
2022/09/26 02:32:17;;;;;;;5.85;2.67;;;;;;;12.47;100.00;100349.47;5064302;28;20045;-74
2022/09/26 02:34:46;;;;;;;10.30;3.88;;;;;;;12.54;100.00;100350.16;5059923;28;20045;-76
2022/09/26 02:37:20;;;;;;;8.90;4.38;;;;;;;12.59;100.00;100346.13;5057608;28;20559;-74
2022/09/26 02:39:49;;;;;;;15.02;5.30;;;;;;;12.59;100.00;100338.56;5061865;28;20048;-74
2022/09/26 02:42:35;;;;;;;16.83;5.75;;;;;;;12.62;100.00;100339.72;5055454;28;20048;-74
2022/09/26 02:45:28;;;;;;;7.57;2.50;;;;;;;12.53;100.00;100329.13;5067519;28;20781;-76
2022/09/26 02:48:26;;;;;;;4.88;2.45;;;;;;;12.62;100.00;100318.31;5062476;28;20068;-74
2022/09/26 02:51:25;;;;;;;13.25;6.00;;;;;;;12.64;100.00;100315.13;5066447;28;20044;-74
2022/09/26 02:54:14;;;;;;;14.32;5.75;;;;;;;12.63;100.00;100308.75;5046742;28;20346;-74
2022/09/26 02:57:02;;;;;;;8.15;3.30;;;;;;;12.64;100.00;100307.59;5059888;28;20036;-74
2022/09/26 02:59:58;;;;;;;14.98;5.38;;;;;;;12.64;100.00;100298.47;5058595;28;20044;-74
2022/09/26 03:02:49;;;;;;;14.82;6.10;;;;;;;12.58;100.00;100300.94;5050446;28;20435;-76
2022/09/26 03:05:19;;;;;;;13.55;3.42;;;;;;;12.53;100.00;100297.84;5059786;28;20056;-74
2022/09/26 03:07:55;;;;;;;16.75;7.43;;;;;;;12.66;100.00;100287.72;5056524;28;20041;-74
2022/09/26 03:10:24;;;;;;;15.30;6.60;;;;;;;12.65;100.00;100277.81;5056565;28;20056;-74
2022/09/26 03:12:52;;;;;;;17.27;6.35;;;;;;;12.61;100.00;100272.34;5058754;28;20049;-75
2022/09/26 03:15:20;;;;;;;20.88;6.32;;;;;;;12.59;100.00;100268.41;5059542;28;20048;-75
2022/09/26 03:17:52;;;;;;;15.10;5.88;;;;;;;12.67;100.00;100258.75;5061221;28;20044;-74
2022/09/26 03:20:21;;;;;;;17.38;7.95;;;;;;;12.62;100.00;100251.69;5059811;28;20493;-75
2022/09/26 03:22:48;;;;;;;17.25;6.25;;;;;;;12.63;100.00;100258.03;5061680;28;20074;-74
2022/09/26 03:25:19;;;;;;;17.52;6.80;;;;;;;12.70;100.00;100252.38;5059213;28;20102;-75
2022/09/26 03:27:46;;;;;;;14.70;5.93;;;;;;;12.64;100.00;100254.84;5064918;28;20052;-75
2022/09/26 03:30:14;;;;;;;9.63;4.43;;;;;;;12.66;100.00;100254.44;5059373;28;20044;-76
2022/09/26 03:32:41;;;;;;;19.88;7.30;;;;;;;12.73;100.00;100237.66;5066217;28;20044;-75
2022/09/26 03:35:08;;;;;;;16.02;6.70;;;;;;;12.73;100.00;100243.19;5059731;28;20154;-74
2022/09/26 03:37:36;;;;;;;17.73;6.78;;;;;;;12.76;100.00;100239.56;5059162;28;20052;-74
2022/09/26 03:40:08;;;;;;;17.15;7.20;;;;;;;12.77;100.00;100230.03;5058993;28;20048;-75
2022/09/26 03:42:35;;;;;;;18.40;5.85;;;;;;;12.71;100.00;100229.75;5059812;28;20049;-74
2022/09/26 03:45:09;;;;;;;8.70;3.83;;;;;;;12.70;100.00;100224.59;5058547;28;20048;-74
2022/09/26 03:47:37;;;;;;;19.70;7.20;;;;;;;12.70;100.00;100219.06;5057442;28;20060;-74
2022/09/26 03:50:05;;;;;;;14.45;4.82;;;;;;;12.69;100.00;100217.50;5061513;28;20064;-76
2022/09/26 03:52:31;;;;;;;12.35;4.35;;;;;;;12.70;100.00;100213.50;5062715;28;20094;-75
2022/09/26 03:54:58;;;;;;;10.93;3.97;;;;;;;12.75;100.00;100219.34;5058232;28;20041;-76
2022/09/26 03:57:24;;;;;;;18.48;6.72;;;;;;;12.78;100.00;100206.59;5064981;28;20744;-75
2022/09/26 03:59:51;;;;;;;10.90;4.45;;;;;;;12.78;100.00;100206.59;5059391;28;20448;-74
2022/09/26 04:02:18;;;;;;;15.32;6.68;;;;;;;12.76;100.00;100195.94;5049706;28;20045;-74
2022/09/26 04:04:45;;;;;;;18.20;7.90;;;;;;;12.81;100.00;100203.00;5057043;28;20049;-74
2022/09/26 04:07:11;;;;;;;13.77;5.85;;;;;;;12.74;100.00;100197.56;5066500;28;20045;-74
2022/09/26 04:09:38;;;;;;;14.88;5.38;;;;;;;12.72;100.00;100184.09;5054622;28;20040;-74
2022/09/26 04:12:04;;;;;;;8.00;3.38;;;;;;;12.71;100.00;100190.09;5059134;28;20049;-75
2022/09/26 04:14:31;;;;;;;13.50;4.32;;;;;;;12.75;100.00;100179.69;5057445;28;20049;-75
2022/09/26 04:16:58;;;;;;;14.50;6.00;;;;;;;12.76;100.00;100178.50;5066286;28;20051;-75
2022/09/26 04:19:25;;;;;;;16.77;6.85;;;;;;;12.79;100.00;100156.22;5066904;28;20060;-75
2022/09/26 04:21:52;;;;;;;20.08;6.72;;;;;;;12.71;100.00;100168.66;5057852;28;20045;-75
2022/09/26 04:24:18;;;;;;;20.45;7.93;;;;;;;12.77;100.00;100153.09;5065988;28;20048;-74
2022/09/26 04:26:44;;;;;;;14.00;4.47;;;;;;;12.69;100.00;100156.44;5064083;28;20048;-74
2022/09/26 04:29:12;;;;;;;9.98;3.88;;;;;;;12.64;100.00;100151.34;5058874;28;20060;-74
2022/09/26 04:31:39;;;;;;;17.08;7.72;;;;;;;12.75;100.00;100138.84;5065967;28;20048;-75
2022/09/26 04:34:05;;;;;;;14.55;6.72;;;;;;;12.70;100.00;100136.56;5054480;28;20055;-75
2022/09/26 04:36:32;;;;;;;15.57;6.85;;;;;;;12.73;100.00;100138.47;5060962;28;20045;-74
2022/09/26 04:38:59;;;;;;;8.75;4.18;;;;;;;12.68;100.00;100135.41;5063943;28;20094;-74
2022/09/26 04:41:27;;;;;;;18.17;6.82;;;;;;;12.70;100.00;100131.00;5061043;28;20044;-75
2022/09/26 04:43:55;;;;;;;11.35;4.00;;;;;;;12.63;100.00;100138.69;5068080;28;20048;-74
2022/09/26 04:46:24;;;;;;;3.08;2.03;;;;;;;12.61;100.00;100133.56;5063603;28;20473;-75
2022/09/26 04:48:58;;;;;;;16.35;6.88;;;;;;;12.66;100.00;100129.53;5063376;28;20048;-74
2022/09/26 04:51:26;;;;;;;19.55;6.43;;;;;;;12.63;100.00;100119.28;5064610;28;20761;-74
2022/09/26 04:53:53;;;;;;;14.65;3.88;;;;;;;12.53;100.00;100109.16;5069812;28;20512;-73
2022/09/26 04:56:21;;;;;;;9.05;4.03;;;;;;;12.61;100.00;100113.34;5066936;28;20048;-75
2022/09/26 04:58:48;;;;;;;9.20;2.90;;;;;;;12.54;100.00;100105.97;5062210;28;20052;-73
2022/09/26 05:01:16;;;;;;;18.60;7.40;;;;;;;12.65;100.00;100105.72;5064501;28;20056;-73
2022/09/26 05:03:43;;;;;;;6.63;3.00;;;;;;;12.63;100.00;100099.84;5059487;28;20052;-73
2022/09/26 05:06:11;;;;;;;20.73;4.32;;;;;;;12.58;100.00;100103.09;5066313;28;20045;-75
2022/09/26 05:08:40;;;;;;;10.55;3.72;;;;;;;12.58;100.00;100092.00;5053802;28;20068;-73
2022/09/26 05:11:08;;;;;;;6.72;3.38;;;;;;;12.52;100.00;100082.63;5060446;28;20047;-76
2022/09/26 05:13:35;;;;;;;16.95;6.43;;;;;;;12.53;100.00;100076.63;5052894;28;20063;-74
2022/09/26 05:16:02;;;;;;;18.50;6.80;;;;;;;12.56;100.00;100077.78;5069312;28;20047;-73
2022/09/26 05:18:29;;;;;;;19.13;8.30;;;;;;;12.58;100.00;100075.34;5060954;28;20052;-73
2022/09/26 05:20:56;;;;;;;18.95;6.97;;;;;;;12.50;100.00;100066.41;5069084;28;20055;-74
2022/09/26 05:26:29;;;;;;;15.45;5.93;;;;;;;12.49;100.00;100069.59;5059672;28;20054;-75
2022/09/26 05:29:03;;;;;;;15.93;6.65;;;;;;;12.59;100.00;100074.16;5061665;28;20045;-74
2022/09/26 05:31:36;;;;;;;8.75;3.88;;;;;;;12.48;100.00;100065.22;5057326;28;20048;-73
2022/09/26 05:34:04;;;;;;;11.35;4.55;;;;;;;12.52;100.00;100063.97;5069331;28;20043;-73
2022/09/26 05:36:31;;;;;;;20.35;7.32;;;;;;;12.49;100.00;100050.94;5062512;28;20052;-73
2022/09/26 05:38:58;;;;;;;19.38;7.53;;;;;;;12.59;100.00;100055.50;5060516;28;20040;-73
2022/09/26 05:41:32;;;;;;;11.55;2.92;;;;;;;12.49;100.00;100061.28;5065247;28;20052;-73
2022/09/26 05:43:59;;;;;;;22.42;9.70;;;;;;;12.54;100.00;100049.66;5061081;28;20040;-73
2022/09/26 05:46:30;;;;;;;24.70;7.72;;;;;;;12.58;100.00;100051.16;5062252;28;20048;-73
2022/09/26 05:48:57;;;;;;;19.23;6.53;;;;;;;12.61;100.00;100057.84;5068103;28;20099;-74
2022/09/26 05:51:23;;;;;;;6.03;2.42;;;;;;;12.62;100.00;100059.41;5066967;28;20575;-74
2022/09/26 05:53:50;;;;;;;17.88;6.82;;;;;;;12.67;100.00;100045.03;5068613;28;20051;-73
2022/09/26 05:56:18;;;;;;;14.93;6.55;;;;;;;12.66;100.00;100044.25;5057219;28;20048;-73
2022/09/26 05:58:46;;;;;;;18.80;8.10;;;;;;;12.70;100.00;100049.75;5063390;28;20052;-73
2022/09/26 06:01:14;;;;;;;6.82;2.10;;;;;;;12.65;100.00;100048.25;5066346;28;20049;-73
2022/09/26 06:03:43;;;;;;;9.57;4.07;;;;;;;12.72;100.00;100042.56;5068680;28;20052;-72
2022/09/26 06:06:12;;;;;;;12.35;3.22;;;;;;;12.66;100.00;100035.16;5066504;28;20045;-75
2022/09/26 06:08:40;;;;;;;8.30;2.92;;;;;;;12.68;100.00;100043.81;5064423;28;20048;-73
2022/09/26 06:11:09;;;;;;;16.90;6.85;;;;;;;12.83;100.00;100029.22;5061970;28;20041;-75
2022/09/26 06:13:36;;;;;;;15.70;3.40;;;;;;;12.69;100.00;100020.44;5068903;28;20059;-75
2022/09/26 06:16:05;;;;;;;16.80;6.68;;;;;;;12.82;100.00;100024.88;5068300;28;20048;-75
2022/09/26 06:18:35;;;;;;;16.40;6.47;;;;;;;12.91;100.00;100021.53;5068145;28;20456;-76
2022/09/26 06:21:08;;;;;;;9.13;3.58;;;;;;;12.85;100.00;100020.47;5068424;28;20063;-71
2022/09/26 06:23:35;;;;;;;11.63;4.43;;;;;;;12.89;100.00;100016.41;5069333;28;20053;-75
2022/09/26 06:26:03;;;;;;;5.10;2.83;;;;;;;12.89;100.00;100016.41;5068164;28;20060;-74
2022/09/26 06:28:30;;;;;;;12.93;5.18;;;;;;;13.00;100.00;100011.44;5068107;28;20063;-73
2022/09/26 06:30:56;;;;;;;16.23;5.25;;;;;;;12.96;100.00;100001.56;5068244;28;20048;-73
2022/09/26 06:33:23;;;;;;;13.02;4.38;;;;;;;13.01;100.00;100001.13;5068091;28;20488;-74
2022/09/26 06:36:05;;;;;;;12.95;3.90;;;;;;;13.01;100.00;99998.34;5068377;28;20052;-74
2022/09/26 06:38:31;;;;;;;11.43;5.45;;;;;;;13.12;100.00;99998.09;5067691;28;20049;-73
2022/09/26 06:40:58;;;;;;;9.52;3.28;;;;;;;13.12;100.00;99990.53;5067154;28;20496;-74
2022/09/26 06:43:24;;;;;;;7.10;2.97;;;;;;;13.11;100.00;99989.00;5067070;28;20041;-73
2022/09/26 06:45:52;;;;;;;8.73;3.05;;;;;;;13.16;100.00;99973.81;5056403;28;20060;-74
2022/09/26 06:48:23;;;;;;;10.77;4.15;;;;;;;13.15;100.00;99966.66;5062739;28;20485;-74
2022/09/26 06:50:51;;;;;;;4.95;2.72;;;;;;;13.18;100.00;99963.03;5066978;28;20075;-74
2022/09/26 06:53:18;;;;;;;3.80;1.67;;;;;;;13.12;100.00;99957.22;5068160;28;20055;-69
2022/09/26 06:55:45;;;;;;;9.95;4.25;;;;;;;13.22;100.00;99955.41;5067894;28;20056;-70
2022/09/26 06:58:11;;;;;;;9.77;2.80;;;;;;;13.20;100.00;99955.84;5067808;28;20056;-69
2022/09/26 07:00:38;;;;;;;16.25;4.05;;;;;;;13.34;100.00;99957.50;5066731;28;20041;-71
2022/09/26 07:03:05;;;;;;;10.57;4.53;;;;;;;13.33;100.00;99953.91;5066720;28;20047;-70
2022/09/26 07:05:31;;;;;;;6.05;2.65;;;;;;;13.21;100.00;99957.41;5067879;28;20052;-69
2022/09/26 07:07:58;;;;;;;15.68;4.65;;;;;;;13.36;100.00;99960.63;5064790;28;20040;-71
2022/09/26 07:10:24;;;;;;;3.58;1.92;;;;;;;13.26;100.00;99953.34;5067872;28;20049;-72
2022/09/26 07:12:51;;;;;;;11.23;3.78;;;;;;;13.37;100.00;99949.09;5074387;28;20465;-69
2022/09/26 07:15:19;;;;;;;10.60;3.63;;;;;;;13.35;100.00;99942.38;5067868;28;20519;-70
2022/09/26 07:17:50;;;;;;;9.02;2.83;;;;;;;13.25;100.00;99941.44;5065798;28;20049;-71
2022/09/26 07:20:19;;;;;;;10.40;4.50;;;;;;;13.33;100.00;99934.47;5066434;28;20063;-70
2022/09/26 07:22:46;;;;;;;9.45;3.50;;;;;;;13.30;100.00;99932.59;5066460;28;20144;-70
2022/09/26 07:25:13;;;;;;;8.15;2.75;;;;;;;13.33;100.00;99940.03;5067133;28;20064;-69
2022/09/26 07:27:40;;;;;;;10.20;3.80;;;;;;;13.28;100.00;99928.66;5065996;28;20048;-69
2022/09/26 07:30:08;;;;;;;7.88;3.22;;;;;;;13.25;100.00;99933.09;5063569;28;20051;-69
2022/09/26 07:32:38;;;;;;;16.63;4.80;;;;;;;13.42;100.00;99922.75;5066566;28;20062;-67
2022/09/26 07:35:05;;;;;;;10.50;4.55;;;;;;;13.31;100.00;99920.25;5067375;28;20052;-70
2022/09/26 07:37:32;;;;;;;10.40;3.78;;;;;;;13.11;100.00;99914.00;5066950;28;20056;-69
2022/09/26 07:39:59;;;;;;;10.30;3.95;;;;;;;13.26;100.00;99914.44;5067615;28;20055;-68
2022/09/26 07:42:27;;;;;;;17.90;4.80;;;;;;;13.37;100.00;99918.53;5066220;28;20045;-69
2022/09/26 07:44:54;;;;;;;15.15;4.90;;;;;;;13.32;100.00;99913.47;5064360;28;21327;-71
2022/09/26 07:50:25;;;;;;;18.30;5.28;;;;;;;13.35;100.00;99903.47;5066941;28;20067;-70
2022/09/26 07:52:51;;;;;;;9.43;4.18;;;;;;;13.19;100.00;99906.28;5064823;28;20071;-70
2022/09/26 07:55:23;;;;;;;12.38;4.80;;;;;;;13.35;100.00;99898.72;5067178;28;20052;-69
2022/09/26 07:57:49;;;;;;;7.53;3.03;;;;;;;13.29;100.00;99892.13;5067759;28;20048;-70
2022/09/26 08:00:18;;;;;;;9.18;3.00;;;;;;;13.36;100.00;99880.06;5066640;28;20053;-71
2022/09/26 08:02:47;;;;;;;6.22;3.17;;;;;;;13.43;100.00;99883.41;5067482;28;20049;-69
2022/09/26 08:05:18;;;;;;;7.13;1.98;;;;;;;13.37;100.00;99884.38;5067454;28;20113;-70
2022/09/26 08:07:46;;;;;;;5.53;1.60;;;;;;;13.38;100.00;99874.81;5058288;28;20041;-68
2022/09/26 08:10:19;;;;;;;12.20;3.45;;;;;;;13.41;100.00;99879.53;5065610;28;20099;-68
2022/09/26 08:12:47;;;;;;;9.20;3.10;;;;;;;13.37;100.00;99887.16;5067949;28;20473;-68
2022/09/26 08:15:14;;;;;;;7.30;1.70;;;;;;;13.37;100.00;99901.84;5069919;28;20056;-68
2022/09/26 08:17:42;;;;;;;7.03;2.47;;;;;;;13.48;100.00;99887.66;5064516;28;20060;-71
2022/09/26 08:20:09;;;;;;;4.75;2.10;;;;;;;13.44;100.00;99892.53;5071129;28;20049;-67
2022/09/26 08:22:36;;;;;;;11.27;4.30;;;;;;;13.45;100.00;99881.00;5068741;28;20060;-67
2022/09/26 08:25:05;;;;;;;3.72;1.75;;;;;;;13.37;100.00;99882.41;5070661;28;20045;-68
2022/09/26 08:27:32;;;;;;;7.65;2.65;;;;;;;13.23;100.00;99891.06;5070038;28;20040;-71
2022/09/26 08:29:59;;;;;;;5.43;2.25;;;;;;;13.21;100.00;99890.75;5067306;28;20041;-69
2022/09/26 08:32:26;;;;;;;10.57;4.15;;;;;;;13.35;100.00;99882.03;5068671;28;20578;-70
2022/09/26 08:34:53;;;;;;;13.40;2.10;;;;;;;13.23;100.00;99879.97;5068856;28;20049;-67
2022/09/26 08:37:25;;;;;;;8.75;2.05;;;;;;;13.15;100.00;99878.59;5071987;28;20151;-67
2022/09/26 08:39:52;;;;;;;8.35;3.60;;;;;;;13.16;100.00;99890.47;5071343;28;20471;-69
2022/09/26 08:42:40;;;;;;;9.20;3.58;;;;;;;13.19;100.00;99876.50;5065584;28;20059;-69
2022/09/26 08:48:27;;;;;;;7.78;3.35;;;;;;;12.99;100.00;99882.13;5067239;28;20511;-69
2022/09/26 08:51:01;;;;;;;3.25;1.83;;;;;;;12.96;100.00;99887.72;5051987;28;20056;-67
2022/09/26 08:53:44;;;;;;;10.10;3.57;;;;;;;12.95;100.00;99875.88;5069848;28;20040;-69
2022/09/26 08:56:21;;;;;;;9.10;3.25;;;;;;;12.72;100.00;99870.47;5067095;28;20052;-70
2022/09/26 08:58:51;;;;;;;11.50;4.85;;;;;;;12.84;100.00;99867.03;5070323;28;20040;-69
2022/09/26 09:01:28;;;;;;;10.73;3.47;;;;;;;12.71;100.00;99857.00;5069854;28;20098;-70
2022/09/26 09:04:02;;;;;;;10.40;3.58;;;;;;;12.85;100.00;99853.91;5070082;28;20569;-71
2022/09/26 09:06:28;;;;;;;13.77;3.38;;;;;;;12.76;100.00;99859.28;5069074;28;20060;-68
2022/09/26 09:08:56;;;;;;;13.75;3.95;;;;;;;12.72;100.00;99858.56;5070286;28;20102;-70
2022/09/26 09:11:28;;;;;;;5.60;2.45;;;;;;;12.61;100.00;99858.03;5068517;28;20049;-69
2022/09/26 09:14:08;;;;;;;9.38;3.50;;;;;;;12.53;100.00;99848.31;5069383;28;20114;-68
2022/09/26 09:16:53;;;;;;;9.82;2.85;;;;;;;12.49;100.00;99842.84;5069082;28;20056;-71
2022/09/26 09:19:39;;;;;;;7.90;3.33;;;;;;;12.34;100.00;99836.06;5069393;28;20056;-69
2022/09/26 09:22:12;;;;;;;12.98;5.78;;;;;;;12.49;100.00;99839.31;5064370;28;20060;-68
2022/09/26 09:24:43;;;;;;;10.38;3.20;;;;;;;12.32;100.00;99840.47;5069882;28;20048;-66
2022/09/26 09:27:19;;;;;;;8.73;3.47;;;;;;;12.24;100.00;99839.06;5067700;28;20759;-66
2022/09/26 09:30:14;;;;;;;4.90;2.63;;;;;;;12.20;100.00;99850.25;5064341;28;20076;-72
2022/09/26 09:32:47;;;;;;;9.35;3.28;;;;;;;12.18;100.00;99841.56;5068343;28;20489;-67
2022/09/26 09:35:17;;;;;;;9.65;3.47;;;;;;;12.21;100.00;99839.91;5067897;28;20063;-68
2022/09/26 09:37:50;;;;;;;13.65;6.30;;;;;;;12.17;100.00;99839.22;5069211;28;20044;-69
2022/09/26 09:40:28;;;;;;;8.65;3.58;;;;;;;12.19;100.00;99829.25;5063453;28;20068;-67
2022/09/26 09:43:25;;;;;;;15.63;6.45;;;;;;;12.28;100.00;99828.66;5062042;28;20048;-67
2022/09/26 09:46:00;;;;;;;15.63;5.45;;;;;;;12.24;100.00;99825.97;5058059;28;20416;-66
2022/09/26 09:48:27;;;;;;;10.13;2.70;;;;;;;12.25;100.00;99816.44;5068705;28;20131;-71
2022/09/26 09:51:12;;;;;;;16.00;5.38;;;;;;;12.33;100.00;99808.75;5068443;28;20059;-71
2022/09/26 09:54:14;;;;;;;4.15;2.03;;;;;;;12.20;100.00;99805.09;5069039;28;20555;-72
2022/09/26 09:57:16;;;;;;;14.20;4.78;;;;;;;12.37;100.00;99795.56;5068033;28;20044;-70
2022/09/26 09:59:51;;;;;;;5.53;2.47;;;;;;;12.32;100.00;99796.09;5052174;28;20615;-71
2022/09/26 10:02:18;;;;;;;;;;;;;;;12.51;100.00;99779.38;5058571;28;20052;-65
2022/09/26 10:04:55;;;;;;;9.77;4.25;;;;;;;12.52;100.00;99780.94;5056253;28;19932;-68
2022/09/26 10:07:21;;;;;;;15.63;5.55;;;;;;;12.66;100.00;99766.72;5070440;28;20055;-68
2022/09/26 10:09:50;;;;;;;11.88;4.68;;;;;;;12.67;100.00;99761.97;5042034;28;20044;-71
2022/09/26 10:12:21;;;;;;;10.48;4.30;;;;;;;12.75;100.00;99760.56;5049971;28;20067;-67
2022/09/26 10:14:57;;;;;;;10.60;4.18;;;;;;;12.56;100.00;99761.44;5050038;28;20067;-69
2022/09/26 10:17:23;;;;;;;8.00;3.22;;;;;;;12.75;100.00;99744.69;5048492;28;20916;-68
2022/09/26 10:19:50;;;;;;;4.28;2.10;;;;;;;12.71;100.00;99743.22;5050998;28;20117;-69
2022/09/26 10:22:24;;;;;;;10.85;4.05;;;;;;;12.83;100.00;99728.66;5048744;28;20526;-70
2022/09/26 10:24:59;;;;;;;4.93;2.50;;;;;;;12.84;100.00;99721.88;5044344;28;20075;-70
2022/09/26 10:27:34;;;;;;;5.93;3.00;;;;;;;12.71;100.00;99721.03;5045817;28;20056;-69
2022/09/26 10:30:17;;;;;;;7.30;2.00;;;;;;;12.77;100.00;99724.84;5049263;28;20054;-69
2022/09/26 10:32:47;;;;;;;7.97;2.92;;;;;;;12.77;100.00;99719.28;5046254;28;20052;-69
2022/09/26 10:35:28;;;;;;;5.38;2.63;;;;;;;12.73;100.00;99704.72;5046664;28;20081;-70
2022/09/26 10:37:59;;;;;;;5.72;2.50;;;;;;;12.73;100.00;99713.06;5045796;28;20048;-69
2022/09/26 10:40:44;;;;;;;13.70;3.10;;;;;;;12.77;100.00;99716.50;5048664;28;20150;-70
2022/09/26 10:43:19;;;;;;;2.80;1.65;;;;;;;12.74;100.00;99703.50;5042161;28;20161;-71
2022/09/26 10:45:48;;;;;;;;;;;;;;;12.76;100.00;99714.97;5047789;28;20056;-68
2022/09/26 10:48:20;;;;;;;7.00;2.47;;;;;;;12.74;100.00;99703.50;5046594;28;19950;-71
2022/09/26 10:50:50;;;;;;;2.10;1.23;;;;;;;12.77;100.00;99710.97;5046030;28;20068;-71
2022/09/26 10:53:22;;;;;;;9.98;4.00;;;;;;;12.85;100.00;99704.00;5049962;28;20059;-70
2022/09/26 10:55:56;;;;;;;7.22;2.55;;;;;;;12.81;100.00;99697.75;5048370;28;20860;-70
2022/09/26 10:58:28;;;;;;;7.60;3.17;;;;;;;12.95;100.00;99695.41;5047108;28;20056;-70
2022/09/26 11:00:59;;;;;;;6.45;2.75;;;;;;;12.99;100.00;99690.56;5046881;28;20497;-70
2022/09/26 11:03:37;;;;;;;5.82;2.55;;;;;;;13.06;100.00;99678.47;5041777;28;20044;-71
2022/09/26 11:06:04;;;;;;;8.95;2.80;;;;;;;13.19;100.00;99679.28;5044165;28;20044;-69
2022/09/26 11:08:33;;;;;;;7.10;3.45;;;;;;;13.30;100.00;99685.34;5046499;28;20036;-71
2022/09/26 11:11:03;;;;;;;11.23;3.35;;;;;;;13.43;100.00;99671.47;5043457;28;20055;-69
2022/09/26 11:14:06;;;;;;;5.97;2.33;;;;;;;13.53;100.00;99660.03;5046607;28;20059;-71
2022/09/26 11:16:47;;;;;;;5.80;1.83;;;;;;;13.68;100.00;99652.06;5040878;28;20918;-70
2022/09/26 11:19:25;;;;;;;5.57;2.45;;;;;;;13.73;100.00;99668.19;5043970;28;20041;-71
2022/09/26 11:22:18;;;;;;;8.32;2.88;;;;;;;13.94;100.00;99667.53;5040253;28;20053;-70
2022/09/26 11:24:58;;;;;;;9.80;3.90;;;;;;;13.94;100.00;99657.19;5046071;28;20048;-71
2022/09/26 11:27:32;;;;;;;10.23;3.53;;;;;;;14.09;100.00;99657.50;5048053;28;20198;-69
2022/09/26 11:30:11;;;;;;;10.63;3.37;;;;;;;14.22;100.00;99634.06;5044745;28;20056;-68
2022/09/26 11:32:41;;;;;;;11.98;2.97;;;;;;;14.22;100.00;99633.25;5045677;28;20054;-71
2022/09/26 11:35:25;;;;;;;6.07;2.33;;;;;;;14.19;100.00;99625.78;5047377;28;20196;-70
2022/09/26 11:38:17;;;;;;;4.00;1.83;;;;;;;14.28;100.00;99621.13;5048288;28;20040;-70
2022/09/26 11:41:06;;;;;;;7.50;2.60;;;;;;;14.47;100.00;99610.94;5048811;28;20044;-72
2022/09/26 11:43:45;;;;;;;7.78;2.55;;;;;;;14.50;100.00;99615.63;5047116;28;20048;-70
2022/09/26 11:46:45;;;;;;;9.88;3.08;;;;;;;14.65;100.00;99600.75;5049377;28;20102;-70
2022/09/26 11:49:36;;;;;;;7.47;3.30;;;;;;;14.80;100.00;99610.19;5030801;28;20159;-70